Fuerteventura > ESTACION METEOROLÓGICA Betancuria

DATOS ACTUALES Online

Ultima actulizacion 34 minutos

19.1 ºC

Temperatura

87

Humedad (%)

967.6

Presión (mb)

0

Precipitación (mm)

20.8 O

Viento (Km/h)

DATOS DIARIOS

Temperatura últimas 24 horas (ºC)

Humedad últimas 24 horas (%)

Presión atmosférica últimas 24 horas (mb)

Precipitaciones últimas 23 horas (mm)

Viento últimas 24 horas (Km/h)

Hora Temperatura (°C) ºC Precipitación (mm) mm Presión (mb) mb Humedad (%) % Viento (Km/h) km/h
24 - 22:00 20.4 0 968 73 25.6 NO
24 - 23:00 20.1 0 969 75 21 NO
25 - 00:00 20 0 969 76 12.6 NO
25 - 01:00 19.7 0 969 78 5.7 W
25 - 02:00 19.6 0 968 78 9.9 N
25 - 03:00 19.5 0 968 79 9.7 N
25 - 04:00 19.4 0 968 79 15.9 NO
25 - 05:00 19.3 0 968 81 17.1 NO
25 - 06:00 19.5 0 968 81 22.4 NO
25 - 07:00 19.6 0 968 81 16.9 NO
25 - 08:00 19.6 0 968 81 20.3 NO
25 - 09:00 20.1 0 969 79 15.5 NO
25 - 10:00 20.7 0 970 79 17.3 NO
25 - 11:00 20.9 0 969 74 22.2 NO
25 - 12:00 21.3 0 969 75 22.6 NO
25 - 13:00 23 0 968 67 26.5 NO
25 - 14:00 23 0 967 66 33.9 NO
25 - 15:00 23.1 0 968 67 21.4 NO
25 - 16:00 21.4 0 968 77 21.9 NO
25 - 17:00 20.4 0 968 81 21.7 NO
25 - 18:00 19.5 0 968 85 23.1 NO
25 - 19:00 19 0 968 86 29.6 NO
25 - 20:00 18.4 0 968 87 27.6 O
25 - 21:00 18.9 0 968 87 22.6 O
25 - 22:00 19.1 0 968 87 20.8 O
Apalmet utiliza cookies propias y de terceros para mejorar la usabilidad y la experiencia web. Política de cookies.